sensor_id;sensor_type;location;lat;lon;timestamp;P1;durP1;ratioP1;P2;durP2;ratioP2
64459;SDS011;50828;53.756;21.140;2023-02-13T00:01:16;19.40;;;8.40;;
64459;SDS011;50828;53.756;21.140;2023-02-13T00:06:24;18.50;;;8.20;;
64459;SDS011;50828;53.756;21.140;2023-02-13T00:11:33;19.20;;;7.80;;
64459;SDS011;50828;53.756;21.140;2023-02-13T00:16:40;18.00;;;7.60;;
64459;SDS011;50828;53.756;21.140;2023-02-13T00:21:49;18.40;;;8.30;;
64459;SDS011;50828;53.756;21.140;2023-02-13T00:26:57;18.90;;;8.00;;
64459;SDS011;50828;53.756;21.140;2023-02-13T00:32:06;15.80;;;8.10;;
64459;SDS011;50828;53.756;21.140;2023-02-13T00:37:15;19.40;;;8.70;;
64459;SDS011;50828;53.756;21.140;2023-02-13T00:42:23;20.30;;;7.90;;
64459;SDS011;50828;53.756;21.140;2023-02-13T00:47:30;15.50;;;7.90;;
64459;SDS011;50828;53.756;21.140;2023-02-13T00:52:38;17.10;;;6.70;;
64459;SDS011;50828;53.756;21.140;2023-02-13T00:57:50;17.50;;;6.80;;
64459;SDS011;50828;53.756;21.140;2023-02-13T01:02:57;19.00;;;7.70;;
64459;SDS011;50828;53.756;21.140;2023-02-13T01:08:05;17.80;;;6.80;;
64459;SDS011;50828;53.756;21.140;2023-02-13T01:13:13;16.30;;;7.20;;
64459;SDS011;50828;53.756;21.140;2023-02-13T01:18:23;14.30;;;7.00;;
64459;SDS011;50828;53.756;21.140;2023-02-13T01:23:31;13.50;;;6.90;;
64459;SDS011;50828;53.756;21.140;2023-02-13T01:28:41;14.10;;;6.30;;
64459;SDS011;50828;53.756;21.140;2023-02-13T01:33:49;15.80;;;6.60;;
64459;SDS011;50828;53.756;21.140;2023-02-13T01:39:02;18.60;;;7.50;;
64459;SDS011;50828;53.756;21.140;2023-02-13T01:49:50;12.40;;;5.80;;
64459;SDS011;50828;53.756;21.140;2023-02-13T01:55:06;12.90;;;5.60;;
64459;SDS011;50828;53.756;21.140;2023-02-13T02:00:16;12.80;;;5.50;;
64459;SDS011;50828;53.756;21.140;2023-02-13T02:05:26;13.30;;;6.00;;
64459;SDS011;50828;53.756;21.140;2023-02-13T02:10:37;9.70;;;5.50;;
64459;SDS011;50828;53.756;21.140;2023-02-13T02:15:45;11.90;;;5.60;;
64459;SDS011;50828;53.756;21.140;2023-02-13T02:38:00;10.70;;;5.10;;
64459;SDS011;50828;53.756;21.140;2023-02-13T02:43:23;10.50;;;5.30;;
64459;SDS011;50828;53.756;21.140;2023-02-13T02:48:42;10.50;;;4.70;;
64459;SDS011;50828;53.756;21.140;2023-02-13T02:54:16;12.60;;;5.00;;
64459;SDS011;50828;53.756;21.140;2023-02-13T02:59:50;11.00;;;4.60;;
64459;SDS011;50828;53.756;21.140;2023-02-13T03:05:19;12.00;;;4.90;;
64459;SDS011;50828;53.756;21.140;2023-02-13T03:10:55;15.10;;;5.10;;
64459;SDS011;50828;53.756;21.140;2023-02-13T03:16:22;9.30;;;5.00;;
64459;SDS011;50828;53.756;21.140;2023-02-13T03:21:51;9.90;;;4.70;;
64459;SDS011;50828;53.756;21.140;2023-02-13T03:27:25;11.20;;;4.50;;
64459;SDS011;50828;53.756;21.140;2023-02-13T03:32:59;10.20;;;4.60;;
64459;SDS011;50828;53.756;21.140;2023-02-13T03:38:23;14.50;;;4.30;;
64459;SDS011;50828;53.756;21.140;2023-02-13T03:43:36;11.10;;;4.20;;
64459;SDS011;50828;53.756;21.140;2023-02-13T03:48:47;10.60;;;4.20;;
64459;SDS011;50828;53.756;21.140;2023-02-13T03:54:14;10.90;;;4.20;;
64459;SDS011;50828;53.756;21.140;2023-02-13T03:59:45;13.50;;;4.10;;
64459;SDS011;50828;53.756;21.140;2023-02-13T04:04:56;8.60;;;3.80;;
64459;SDS011;50828;53.756;21.140;2023-02-13T04:10:10;7.60;;;3.20;;
64459;SDS011;50828;53.756;21.140;2023-02-13T04:15:21;9.40;;;3.40;;
64459;SDS011;50828;53.756;21.140;2023-02-13T04:20:35;6.20;;;3.40;;
64459;SDS011;50828;53.756;21.140;2023-02-13T04:25:44;7.40;;;3.00;;
64459;SDS011;50828;53.756;21.140;2023-02-13T04:30:56;8.80;;;3.40;;
64459;SDS011;50828;53.756;21.140;2023-02-13T04:36:06;7.70;;;3.10;;
64459;SDS011;50828;53.756;21.140;2023-02-13T04:41:14;6.80;;;3.60;;
64459;SDS011;50828;53.756;21.140;2023-02-13T04:46:23;8.60;;;3.60;;
64459;SDS011;50828;53.756;21.140;2023-02-13T04:51:31;7.90;;;3.10;;
64459;SDS011;50828;53.756;21.140;2023-02-13T04:56:40;9.50;;;3.40;;
64459;SDS011;50828;53.756;21.140;2023-02-13T05:01:49;6.80;;;4.10;;
64459;SDS011;50828;53.756;21.140;2023-02-13T05:06:58;9.70;;;3.90;;
64459;SDS011;50828;53.756;21.140;2023-02-13T05:12:06;7.40;;;3.70;;
64459;SDS011;50828;53.756;21.140;2023-02-13T05:17:14;7.10;;;3.30;;
64459;SDS011;50828;53.756;21.140;2023-02-13T05:22:22;8.10;;;4.00;;
64459;SDS011;50828;53.756;21.140;2023-02-13T05:27:48;4.80;;;2.60;;
64459;SDS011;50828;53.756;21.140;2023-02-13T05:32:57;9.70;;;3.80;;
64459;SDS011;50828;53.756;21.140;2023-02-13T05:38:06;10.10;;;3.80;;
64459;SDS011;50828;53.756;21.140;2023-02-13T05:43:14;11.00;;;3.80;;
64459;SDS011;50828;53.756;21.140;2023-02-13T05:48:24;6.60;;;3.60;;
64459;SDS011;50828;53.756;21.140;2023-02-13T05:53:32;8.80;;;3.30;;
64459;SDS011;50828;53.756;21.140;2023-02-13T05:58:41;6.20;;;2.80;;
64459;SDS011;50828;53.756;21.140;2023-02-13T06:03:50;9.50;;;3.60;;
64459;SDS011;50828;53.756;21.140;2023-02-13T06:09:03;8.70;;;3.90;;
64459;SDS011;50828;53.756;21.140;2023-02-13T06:14:12;12.70;;;3.40;;
64459;SDS011;50828;53.756;21.140;2023-02-13T06:19:21;10.20;;;4.00;;
64459;SDS011;50828;53.756;21.140;2023-02-13T06:24:29;8.70;;;3.40;;
64459;SDS011;50828;53.756;21.140;2023-02-13T06:29:37;4.20;;;2.80;;
64459;SDS011;50828;53.756;21.140;2023-02-13T06:34:45;6.80;;;3.10;;
64459;SDS011;50828;53.756;21.140;2023-02-13T06:39:52;6.40;;;2.70;;
64459;SDS011;50828;53.756;21.140;2023-02-13T06:45:00;10.00;;;4.00;;
64459;SDS011;50828;53.756;21.140;2023-02-13T06:50:12;11.40;;;3.80;;
64459;SDS011;50828;53.756;21.140;2023-02-13T06:55:21;7.30;;;3.30;;
64459;SDS011;50828;53.756;21.140;2023-02-13T07:00:29;13.30;;;4.70;;
64459;SDS011;50828;53.756;21.140;2023-02-13T07:05:39;11.70;;;4.60;;
64459;SDS011;50828;53.756;21.140;2023-02-13T07:10:47;8.50;;;4.50;;
64459;SDS011;50828;53.756;21.140;2023-02-13T07:15:59;11.60;;;4.30;;
64459;SDS011;50828;53.756;21.140;2023-02-13T07:21:07;9.60;;;4.50;;
64459;SDS011;50828;53.756;21.140;2023-02-13T07:26:15;6.60;;;3.70;;
64459;SDS011;50828;53.756;21.140;2023-02-13T07:31:24;13.00;;;4.70;;
64459;SDS011;50828;53.756;21.140;2023-02-13T07:36:33;10.50;;;4.50;;
64459;SDS011;50828;53.756;21.140;2023-02-13T07:41:41;11.90;;;5.80;;
64459;SDS011;50828;53.756;21.140;2023-02-13T07:46:51;11.30;;;4.30;;
64459;SDS011;50828;53.756;21.140;2023-02-13T07:52:01;9.80;;;4.70;;
64459;SDS011;50828;53.756;21.140;2023-02-13T07:57:09;13.70;;;6.50;;
64459;SDS011;50828;53.756;21.140;2023-02-13T08:02:16;11.10;;;5.00;;
64459;SDS011;50828;53.756;21.140;2023-02-13T08:07:25;10.20;;;4.00;;
64459;SDS011;50828;53.756;21.140;2023-02-13T08:12:34;9.50;;;4.30;;
64459;SDS011;50828;53.756;21.140;2023-02-13T08:17:42;9.40;;;4.30;;
64459;SDS011;50828;53.756;21.140;2023-02-13T08:22:50;12.70;;;4.60;;
64459;SDS011;50828;53.756;21.140;2023-02-13T08:27:59;19.70;;;7.10;;
64459;SDS011;50828;53.756;21.140;2023-02-13T08:33:09;16.60;;;7.70;;
64459;SDS011;50828;53.756;21.140;2023-02-13T08:38:17;11.00;;;5.00;;
64459;SDS011;50828;53.756;21.140;2023-02-13T08:43:25;10.80;;;4.30;;
64459;SDS011;50828;53.756;21.140;2023-02-13T08:48:34;10.20;;;4.30;;
64459;SDS011;50828;53.756;21.140;2023-02-13T08:53:43;9.80;;;4.40;;
64459;SDS011;50828;53.756;21.140;2023-02-13T08:58:52;13.70;;;7.20;;
64459;SDS011;50828;53.756;21.140;2023-02-13T09:03:59;10.20;;;4.60;;
64459;SDS011;50828;53.756;21.140;2023-02-13T09:09:07;9.90;;;4.60;;
64459;SDS011;50828;53.756;21.140;2023-02-13T09:14:14;9.20;;;3.70;;
64459;SDS011;50828;53.756;21.140;2023-02-13T09:19:23;9.60;;;4.00;;
64459;SDS011;50828;53.756;21.140;2023-02-13T09:24:32;8.40;;;3.60;;
64459;SDS011;50828;53.756;21.140;2023-02-13T09:29:40;5.60;;;3.10;;
64459;SDS011;50828;53.756;21.140;2023-02-13T09:34:47;7.60;;;3.70;;
64459;SDS011;50828;53.756;21.140;2023-02-13T09:39:56;64.30;;;23.20;;
64459;SDS011;50828;53.756;21.140;2023-02-13T09:45:05;63.60;;;27.80;;
64459;SDS011;50828;53.756;21.140;2023-02-13T09:55:28;16.00;;;6.90;;
64459;SDS011;50828;53.756;21.140;2023-02-13T10:00:45;15.40;;;5.90;;
64459;SDS011;50828;53.756;21.140;2023-02-13T10:06:01;53.60;;;21.10;;
64459;SDS011;50828;53.756;21.140;2023-02-13T10:11:22;37.40;;;14.90;;
64459;SDS011;50828;53.756;21.140;2023-02-13T10:16:42;46.50;;;16.90;;
64459;SDS011;50828;53.756;21.140;2023-02-13T10:21:53;89.40;;;31.60;;
64459;SDS011;50828;53.756;21.140;2023-02-13T10:27:04;82.00;;;30.70;;
64459;SDS011;50828;53.756;21.140;2023-02-13T10:32:24;44.20;;;17.80;;
64459;SDS011;50828;53.756;21.140;2023-02-13T10:37:36;32.20;;;10.10;;
64459;SDS011;50828;53.756;21.140;2023-02-13T10:42:46;21.10;;;9.00;;
64459;SDS011;50828;53.756;21.140;2023-02-13T10:48:08;18.20;;;7.50;;
64459;SDS011;50828;53.756;21.140;2023-02-13T10:53:31;8.90;;;4.20;;
64459;SDS011;50828;53.756;21.140;2023-02-13T10:58:56;23.90;;;10.20;;
64459;SDS011;50828;53.756;21.140;2023-02-13T11:04:17;34.40;;;10.90;;
64459;SDS011;50828;53.756;21.140;2023-02-13T11:09:27;19.40;;;6.40;;
64459;SDS011;50828;53.756;21.140;2023-02-13T11:19:59;21.00;;;8.30;;
64459;SDS011;50828;53.756;21.140;2023-02-13T11:25:16;17.10;;;7.30;;
64459;SDS011;50828;53.756;21.140;2023-02-13T11:30:32;11.30;;;5.50;;
64459;SDS011;50828;53.756;21.140;2023-02-13T11:35:42;7.90;;;4.20;;
64459;SDS011;50828;53.756;21.140;2023-02-13T11:40:52;9.60;;;3.40;;
64459;SDS011;50828;53.756;21.140;2023-02-13T11:46:15;9.90;;;3.10;;
64459;SDS011;50828;53.756;21.140;2023-02-13T11:56:50;6.90;;;3.60;;
64459;SDS011;50828;53.756;21.140;2023-02-13T12:02:16;10.00;;;4.20;;
64459;SDS011;50828;53.756;21.140;2023-02-13T12:07:25;8.40;;;3.50;;
64459;SDS011;50828;53.756;21.140;2023-02-13T12:12:36;6.50;;;3.60;;
64459;SDS011;50828;53.756;21.140;2023-02-13T12:17:52;8.80;;;3.70;;
64459;SDS011;50828;53.756;21.140;2023-02-13T12:23:19;8.80;;;4.00;;
64459;SDS011;50828;53.756;21.140;2023-02-13T12:28:41;8.90;;;3.50;;
64459;SDS011;50828;53.756;21.140;2023-02-13T12:39:47;12.60;;;5.40;;
64459;SDS011;50828;53.756;21.140;2023-02-13T12:45:12;12.60;;;3.80;;
64459;SDS011;50828;53.756;21.140;2023-02-13T12:50:35;8.40;;;3.50;;
64459;SDS011;50828;53.756;21.140;2023-02-13T13:01:47;12.50;;;3.70;;
64459;SDS011;50828;53.756;21.140;2023-02-13T13:07:16;23.40;;;9.40;;
64459;SDS011;50828;53.756;21.140;2023-02-13T13:12:41;83.30;;;33.50;;
64459;SDS011;50828;53.756;21.140;2023-02-13T13:23:12;20.30;;;10.80;;
64459;SDS011;50828;53.756;21.140;2023-02-13T13:28:26;17.80;;;6.90;;
64459;SDS011;50828;53.756;21.140;2023-02-13T13:33:40;14.20;;;5.60;;
64459;SDS011;50828;53.756;21.140;2023-02-13T13:38:52;8.20;;;3.40;;
64459;SDS011;50828;53.756;21.140;2023-02-13T13:44:16;11.10;;;4.60;;
64459;SDS011;50828;53.756;21.140;2023-02-13T13:49:42;11.90;;;5.30;;
64459;SDS011;50828;53.756;21.140;2023-02-13T13:54:57;10.20;;;4.00;;
64459;SDS011;50828;53.756;21.140;2023-02-13T14:05:34;10.40;;;4.10;;
64459;SDS011;50828;53.756;21.140;2023-02-13T14:11:23;14.80;;;6.20;;
64459;SDS011;50828;53.756;21.140;2023-02-13T14:16:44;16.30;;;6.30;;
64459;SDS011;50828;53.756;21.140;2023-02-13T14:21:53;11.00;;;5.10;;
64459;SDS011;50828;53.756;21.140;2023-02-13T14:27:23;12.30;;;4.60;;
64459;SDS011;50828;53.756;21.140;2023-02-13T14:32:33;15.70;;;4.10;;
64459;SDS011;50828;53.756;21.140;2023-02-13T14:37:48;15.00;;;4.70;;
64459;SDS011;50828;53.756;21.140;2023-02-13T14:43:03;11.90;;;4.40;;
64459;SDS011;50828;53.756;21.140;2023-02-13T14:48:27;15.40;;;5.20;;
64459;SDS011;50828;53.756;21.140;2023-02-13T14:53:44;13.40;;;4.20;;
64459;SDS011;50828;53.756;21.140;2023-02-13T14:59:00;9.30;;;3.30;;
64459;SDS011;50828;53.756;21.140;2023-02-13T15:04:18;9.90;;;3.70;;
64459;SDS011;50828;53.756;21.140;2023-02-13T15:09:33;11.00;;;3.50;;
64459;SDS011;50828;53.756;21.140;2023-02-13T15:14:45;9.00;;;3.60;;
64459;SDS011;50828;53.756;21.140;2023-02-13T15:19:54;6.70;;;2.50;;
64459;SDS011;50828;53.756;21.140;2023-02-13T15:25:19;7.10;;;2.80;;
64459;SDS011;50828;53.756;21.140;2023-02-13T15:30:32;8.20;;;3.10;;
64459;SDS011;50828;53.756;21.140;2023-02-13T15:35:41;12.10;;;4.40;;
64459;SDS011;50828;53.756;21.140;2023-02-13T15:40:50;11.90;;;3.80;;
64459;SDS011;50828;53.756;21.140;2023-02-13T15:46:01;10.20;;;3.30;;
64459;SDS011;50828;53.756;21.140;2023-02-13T15:51:18;13.00;;;3.80;;
64459;SDS011;50828;53.756;21.140;2023-02-13T15:56:27;20.90;;;6.80;;
64459;SDS011;50828;53.756;21.140;2023-02-13T16:01:36;20.70;;;6.50;;
64459;SDS011;50828;53.756;21.140;2023-02-13T16:06:53;20.90;;;6.80;;
64459;SDS011;50828;53.756;21.140;2023-02-13T16:12:03;15.20;;;4.30;;
64459;SDS011;50828;53.756;21.140;2023-02-13T16:17:24;10.00;;;3.50;;
64459;SDS011;50828;53.756;21.140;2023-02-13T16:22:36;14.30;;;3.80;;
64459;SDS011;50828;53.756;21.140;2023-02-13T16:27:48;11.90;;;3.90;;
64459;SDS011;50828;53.756;21.140;2023-02-13T16:33:19;9.70;;;3.70;;
64459;SDS011;50828;53.756;21.140;2023-02-13T16:38:33;10.00;;;2.70;;
64459;SDS011;50828;53.756;21.140;2023-02-13T16:43:42;9.30;;;3.40;;
64459;SDS011;50828;53.756;21.140;2023-02-13T16:49:02;10.70;;;3.40;;
64459;SDS011;50828;53.756;21.140;2023-02-13T16:54:22;12.30;;;4.40;;
64459;SDS011;50828;53.756;21.140;2023-02-13T16:59:40;8.60;;;3.30;;
64459;SDS011;50828;53.756;21.140;2023-02-13T17:10:13;8.20;;;2.90;;
64459;SDS011;50828;53.756;21.140;2023-02-13T17:15:27;11.10;;;3.40;;
64459;SDS011;50828;53.756;21.140;2023-02-13T17:20:36;10.60;;;2.70;;
64459;SDS011;50828;53.756;21.140;2023-02-13T17:25:45;8.90;;;3.00;;
64459;SDS011;50828;53.756;21.140;2023-02-13T17:30:55;6.70;;;2.80;;
64459;SDS011;50828;53.756;21.140;2023-02-13T17:36:04;10.40;;;2.70;;
64459;SDS011;50828;53.756;21.140;2023-02-13T17:41:16;10.70;;;2.90;;
64459;SDS011;50828;53.756;21.140;2023-02-13T17:46:24;8.30;;;2.90;;
64459;SDS011;50828;53.756;21.140;2023-02-13T17:51:31;13.40;;;4.10;;
64459;SDS011;50828;53.756;21.140;2023-02-13T17:56:41;11.10;;;3.80;;
64459;SDS011;50828;53.756;21.140;2023-02-13T18:01:49;9.30;;;3.40;;
64459;SDS011;50828;53.756;21.140;2023-02-13T18:06:57;7.30;;;3.00;;
64459;SDS011;50828;53.756;21.140;2023-02-13T18:12:07;6.70;;;2.50;;
64459;SDS011;50828;53.756;21.140;2023-02-13T18:17:22;12.60;;;3.40;;
64459;SDS011;50828;53.756;21.140;2023-02-13T18:22:30;8.70;;;2.90;;
64459;SDS011;50828;53.756;21.140;2023-02-13T18:27:39;8.70;;;2.50;;
64459;SDS011;50828;53.756;21.140;2023-02-13T18:32:48;11.50;;;3.30;;
64459;SDS011;50828;53.756;21.140;2023-02-13T18:37:58;6.60;;;2.90;;
64459;SDS011;50828;53.756;21.140;2023-02-13T18:43:07;10.40;;;3.00;;
64459;SDS011;50828;53.756;21.140;2023-02-13T18:48:22;7.10;;;2.80;;
64459;SDS011;50828;53.756;21.140;2023-02-13T18:53:30;6.70;;;2.80;;
64459;SDS011;50828;53.756;21.140;2023-02-13T18:58:38;6.90;;;2.60;;
64459;SDS011;50828;53.756;21.140;2023-02-13T19:03:45;8.00;;;2.50;;
64459;SDS011;50828;53.756;21.140;2023-02-13T19:08:55;6.80;;;2.50;;
64459;SDS011;50828;53.756;21.140;2023-02-13T19:14:07;6.40;;;3.10;;
64459;SDS011;50828;53.756;21.140;2023-02-13T19:19:16;6.00;;;2.70;;
64459;SDS011;50828;53.756;21.140;2023-02-13T19:24:25;13.40;;;3.60;;
64459;SDS011;50828;53.756;21.140;2023-02-13T19:29:33;12.50;;;3.30;;
64459;SDS011;50828;53.756;21.140;2023-02-13T19:34:41;9.10;;;3.40;;
64459;SDS011;50828;53.756;21.140;2023-02-13T19:39:50;20.90;;;4.20;;
64459;SDS011;50828;53.756;21.140;2023-02-13T19:44:57;13.90;;;4.10;;
64459;SDS011;50828;53.756;21.140;2023-02-13T19:50:06;16.20;;;4.50;;
64459;SDS011;50828;53.756;21.140;2023-02-13T19:55:15;12.20;;;4.00;;
64459;SDS011;50828;53.756;21.140;2023-02-13T20:00:28;10.80;;;4.00;;
64459;SDS011;50828;53.756;21.140;2023-02-13T20:05:38;12.00;;;3.80;;
64459;SDS011;50828;53.756;21.140;2023-02-13T20:10:47;11.00;;;3.50;;
64459;SDS011;50828;53.756;21.140;2023-02-13T20:15:55;8.60;;;3.40;;
64459;SDS011;50828;53.756;21.140;2023-02-13T20:21:05;7.70;;;3.70;;
64459;SDS011;50828;53.756;21.140;2023-02-13T20:26:15;10.60;;;3.60;;
64459;SDS011;50828;53.756;21.140;2023-02-13T20:31:23;8.90;;;3.60;;
64459;SDS011;50828;53.756;21.140;2023-02-13T20:36:33;7.70;;;3.30;;
64459;SDS011;50828;53.756;21.140;2023-02-13T20:41:41;12.70;;;3.70;;
64459;SDS011;50828;53.756;21.140;2023-02-13T20:52:01;8.00;;;3.20;;
64459;SDS011;50828;53.756;21.140;2023-02-13T20:57:09;10.50;;;3.40;;
64459;SDS011;50828;53.756;21.140;2023-02-13T21:02:18;8.30;;;3.30;;
64459;SDS011;50828;53.756;21.140;2023-02-13T21:07:27;11.20;;;3.10;;
64459;SDS011;50828;53.756;21.140;2023-02-13T21:12:35;9.60;;;3.70;;
64459;SDS011;50828;53.756;21.140;2023-02-13T21:17:44;10.60;;;3.00;;
64459;SDS011;50828;53.756;21.140;2023-02-13T21:22:52;10.50;;;3.20;;
64459;SDS011;50828;53.756;21.140;2023-02-13T21:28:02;7.50;;;2.60;;
64459;SDS011;50828;53.756;21.140;2023-02-13T21:33:11;6.00;;;2.80;;
64459;SDS011;50828;53.756;21.140;2023-02-13T21:38:18;10.20;;;3.40;;
64459;SDS011;50828;53.756;21.140;2023-02-13T21:43:27;8.80;;;3.60;;
64459;SDS011;50828;53.756;21.140;2023-02-13T21:48:34;9.20;;;3.40;;
64459;SDS011;50828;53.756;21.140;2023-02-13T21:53:42;13.70;;;3.90;;
64459;SDS011;50828;53.756;21.140;2023-02-13T21:58:52;9.10;;;3.60;;
64459;SDS011;50828;53.756;21.140;2023-02-13T22:04:02;10.00;;;3.70;;
64459;SDS011;50828;53.756;21.140;2023-02-13T22:09:12;13.20;;;3.40;;
64459;SDS011;50828;53.756;21.140;2023-02-13T22:14:21;12.10;;;4.10;;
64459;SDS011;50828;53.756;21.140;2023-02-13T22:19:29;13.70;;;4.00;;
64459;SDS011;50828;53.756;21.140;2023-02-13T22:24:37;10.00;;;3.60;;
64459;SDS011;50828;53.756;21.140;2023-02-13T22:29:45;10.20;;;3.80;;
64459;SDS011;50828;53.756;21.140;2023-02-13T22:34:54;9.80;;;3.70;;
64459;SDS011;50828;53.756;21.140;2023-02-13T22:40:03;11.60;;;3.80;;
64459;SDS011;50828;53.756;21.140;2023-02-13T22:45:12;8.20;;;4.00;;
64459;SDS011;50828;53.756;21.140;2023-02-13T22:50:23;9.60;;;4.00;;
64459;SDS011;50828;53.756;21.140;2023-02-13T22:55:30;11.20;;;4.10;;
64459;SDS011;50828;53.756;21.140;2023-02-13T23:00:39;7.90;;;3.80;;
64459;SDS011;50828;53.756;21.140;2023-02-13T23:05:48;11.90;;;4.30;;
64459;SDS011;50828;53.756;21.140;2023-02-13T23:10:56;7.50;;;3.60;;
64459;SDS011;50828;53.756;21.140;2023-02-13T23:16:26;8.70;;;3.70;;
64459;SDS011;50828;53.756;21.140;2023-02-13T23:21:55;8.50;;;3.60;;
64459;SDS011;50828;53.756;21.140;2023-02-13T23:27:04;9.50;;;3.80;;
64459;SDS011;50828;53.756;21.140;2023-02-13T23:32:12;11.90;;;3.90;;
64459;SDS011;50828;53.756;21.140;2023-02-13T23:37:21;8.60;;;3.50;;
64459;SDS011;50828;53.756;21.140;2023-02-13T23:42:29;8.00;;;3.60;;
64459;SDS011;50828;53.756;21.140;2023-02-13T23:47:37;14.00;;;4.20;;
64459;SDS011;50828;53.756;21.140;2023-02-13T23:52:45;12.70;;;3.90;;
64459;SDS011;50828;53.756;21.140;2023-02-13T23:57:53;9.20;;;3.40;;
